Time;durP1;ratioP1;P1;durP2;ratioP2;P2;SDS_P1;SDS_P2;PMS_P1;PMS_P2;Temp;Humidity;BMP_temperature;BMP_pressure;BME280_temperature;BME280_humidity;BME280_pressure;Samples;Min_cycle;Max_cycle;Signal;HPM_P1;HPM_P2
2023/05/29 00:01:45;;;;;;;10.45;3.55;;;10.10;99.90;;;;;;5036650;28;20132;-35
2023/05/29 00:04:12;;;;;;;15.70;3.33;;;10.10;99.90;;;;;;5054891;28;20095;-35
2023/05/29 00:06:38;;;;;;;15.05;3.58;;;10.10;99.90;;;;;;5063769;28;20048;-34
2023/05/29 00:09:04;;;;;;;11.63;2.90;;;10.00;99.90;;;;;;5060767;28;20036;-34
2023/05/29 00:11:30;;;;;;;12.63;3.03;;;10.00;99.90;;;;;;5059880;28;20031;-36
2023/05/29 00:13:56;;;;;;;13.18;3.50;;;10.00;99.90;;;;;;5060396;28;20110;-35
2023/05/29 00:16:23;;;;;;;17.08;4.13;;;10.00;99.90;;;;;;5068057;28;20448;-33
2023/05/29 00:18:49;;;;;;;11.32;3.97;;;9.90;99.90;;;;;;5062361;28;20780;-36
2023/05/29 00:21:16;;;;;;;16.58;4.00;;;9.90;99.90;;;;;;5056562;28;20087;-34
2023/05/29 00:23:42;;;;;;;17.58;3.83;;;9.90;99.90;;;;;;5065438;28;20044;-34
2023/05/29 00:26:08;;;;;;;12.40;3.78;;;9.90;99.90;;;;;;5059280;28;20040;-35
2023/05/29 00:28:35;;;;;;;8.70;3.05;;;9.80;99.90;;;;;;5063005;28;20036;-34
2023/05/29 00:31:01;;;;;;;15.00;3.47;;;9.80;99.90;;;;;;5060251;28;20028;-34
2023/05/29 00:33:26;;;;;;;15.27;3.83;;;9.70;99.90;;;;;;5043176;28;20098;-34
2023/05/29 00:35:52;;;;;;;13.73;3.90;;;9.80;99.90;;;;;;5060256;28;20102;-35
2023/05/29 00:38:18;;;;;;;16.80;3.40;;;9.70;99.90;;;;;;5064103;28;20107;-34
2023/05/29 00:40:44;;;;;;;17.52;3.78;;;9.70;99.90;;;;;;5056490;28;20099;-35
2023/05/29 00:43:09;;;;;;;13.43;4.97;;;9.70;99.90;;;;;;5063216;28;20446;-34
2023/05/29 00:45:38;;;;;;;14.80;3.95;;;9.60;99.90;;;;;;5057093;28;20119;-35
2023/05/29 00:48:05;;;;;;;14.23;3.45;;;9.60;99.90;;;;;;5069981;28;20037;-35
2023/05/29 00:50:32;;;;;;;12.35;3.75;;;9.60;99.90;;;;;;5059612;28;20203;-35
2023/05/29 00:53:00;;;;;;;11.80;3.22;;;9.60;99.90;;;;;;5060707;28;20048;-35
2023/05/29 00:55:26;;;;;;;10.63;3.35;;;9.60;99.90;;;;;;5058117;28;20033;-34
2023/05/29 00:57:52;;;;;;;15.25;3.30;;;9.60;99.90;;;;;;5063907;28;20033;-35
2023/05/29 01:00:18;;;;;;;11.88;3.78;;;9.50;99.90;;;;;;5049413;28;20504;-36
2023/05/29 01:02:44;;;;;;;9.75;3.28;;;9.50;99.90;;;;;;5066157;28;20071;-34
2023/05/29 01:05:14;;;;;;;11.95;3.53;;;9.40;99.90;;;;;;5057925;28;20055;-35
2023/05/29 01:07:42;;;;;;;11.05;3.15;;;9.50;99.90;;;;;;5062214;28;20081;-33
2023/05/29 01:10:08;;;;;;;12.27;3.53;;;9.40;99.90;;;;;;5057069;28;20540;-35
2023/05/29 01:12:43;;;;;;;13.13;3.38;;;9.40;99.90;;;;;;5056727;28;20061;-34
2023/05/29 01:15:15;;;;;;;13.82;2.85;;;9.30;99.90;;;;;;5061322;28;20037;-34
2023/05/29 01:17:51;;;;;;;10.85;3.22;;;9.30;99.90;;;;;;5057383;28;20037;-35
2023/05/29 01:20:41;;;;;;;12.65;3.60;;;9.30;99.90;;;;;;5058715;28;20041;-35
2023/05/29 01:23:34;;;;;;;10.52;3.13;;;9.30;99.90;;;;;;5026993;28;20105;-34
2023/05/29 01:26:15;;;;;;;9.75;2.88;;;9.20;99.90;;;;;;5062776;28;20044;-36
2023/05/29 01:28:44;;;;;;;15.18;3.17;;;9.20;99.90;;;;;;5068880;28;20382;-34
2023/05/29 01:31:11;;;;;;;9.77;2.75;;;9.10;99.90;;;;;;5063218;28;20032;-36
2023/05/29 01:33:40;;;;;;;13.13;3.15;;;9.10;99.90;;;;;;5051174;28;20037;-34
2023/05/29 01:36:10;;;;;;;11.63;2.83;;;9.10;99.90;;;;;;5061941;28;20025;-34
2023/05/29 01:38:36;;;;;;;10.90;2.83;;;9.10;99.90;;;;;;5060123;28;20501;-33
2023/05/29 01:41:03;;;;;;;21.92;3.58;;;9.10;99.90;;;;;;5058814;28;20028;-36
2023/05/29 01:43:30;;;;;;;15.68;3.58;;;9.10;99.90;;;;;;5063479;28;20402;-35
2023/05/29 01:45:57;;;;;;;12.27;3.33;;;9.10;99.90;;;;;;5062304;28;20024;-34
2023/05/29 01:48:24;;;;;;;11.65;2.80;;;9.00;99.90;;;;;;5039463;28;20098;-34
2023/05/29 01:50:49;;;;;;;8.82;2.17;;;9.00;99.90;;;;;;5064843;28;20382;-35
2023/05/29 01:53:16;;;;;;;14.32;3.55;;;9.00;99.90;;;;;;5056738;28;20044;-35
2023/05/29 01:55:42;;;;;;;16.15;3.40;;;9.00;99.90;;;;;;5059453;28;20041;-34
2023/05/29 01:58:08;;;;;;;14.23;2.95;;;8.90;99.90;;;;;;5055460;28;20037;-34
2023/05/29 02:00:34;;;;;;;12.07;3.10;;;8.90;99.90;;;;;;5057533;28;20033;-34
2023/05/29 02:03:00;;;;;;;12.15;2.72;;;8.90;99.90;;;;;;5066674;28;20041;-35
2023/05/29 02:05:29;;;;;;;12.27;2.78;;;8.80;99.90;;;;;;5062999;28;20036;-34
2023/05/29 02:07:55;;;;;;;11.20;2.72;;;8.90;99.90;;;;;;5061682;28;20040;-35
2023/05/29 02:10:22;;;;;;;10.40;2.55;;;8.80;99.90;;;;;;5055761;28;20035;-35
2023/05/29 02:12:48;;;;;;;14.20;2.78;;;8.90;99.90;;;;;;5059435;28;20036;-36
2023/05/29 02:15:13;;;;;;;15.35;3.30;;;8.80;99.90;;;;;;5052728;28;20040;-35
2023/05/29 02:17:41;;;;;;;12.55;3.30;;;8.80;99.90;;;;;;5058996;28;20040;-34
2023/05/29 02:20:07;;;;;;;12.18;2.90;;;8.80;99.90;;;;;;5056771;28;20048;-35
2023/05/29 02:22:33;;;;;;;10.95;3.30;;;8.70;99.90;;;;;;5066117;28;20119;-34
2023/05/29 02:24:58;;;;;;;14.35;3.08;;;8.70;99.90;;;;;;5056374;28;20159;-35
2023/05/29 02:27:24;;;;;;;8.80;2.67;;;8.70;99.90;;;;;;5062827;28;20090;-35
2023/05/29 02:29:50;;;;;;;11.02;2.88;;;8.70;99.90;;;;;;5061871;28;20044;-36
2023/05/29 02:32:15;;;;;;;13.98;3.80;;;8.70;99.90;;;;;;5059118;28;20024;-36
2023/05/29 02:34:41;;;;;;;14.05;3.05;;;8.70;99.90;;;;;;5065743;28;20040;-35
2023/05/29 02:37:08;;;;;;;15.05;2.95;;;8.70;99.90;;;;;;5057356;28;20079;-35
2023/05/29 02:39:33;;;;;;;17.35;3.67;;;8.60;99.90;;;;;;5056715;28;20043;-35
2023/05/29 02:41:59;;;;;;;13.02;2.63;;;8.60;99.90;;;;;;5064958;28;20406;-35
2023/05/29 02:44:25;;;;;;;13.32;3.67;;;8.60;99.90;;;;;;5061458;28;20450;-35
2023/05/29 02:46:50;;;;;;;12.15;3.10;;;8.50;99.90;;;;;;5052402;28;20124;-35
2023/05/29 02:49:16;;;;;;;10.00;3.17;;;8.50;99.90;;;;;;5056374;28;20028;-34
2023/05/29 02:51:42;;;;;;;9.30;3.08;;;8.40;99.90;;;;;;5057211;28;20024;-35
2023/05/29 02:54:08;;;;;;;9.05;2.70;;;8.40;99.90;;;;;;5064274;28;20045;-35
2023/05/29 02:56:34;;;;;;;9.63;3.05;;;8.40;99.90;;;;;;5059878;28;20040;-35
2023/05/29 02:59:00;;;;;;;14.77;3.47;;;8.40;99.90;;;;;;5062759;28;20040;-36
2023/05/29 03:01:26;;;;;;;10.77;3.28;;;8.30;99.90;;;;;;5058440;28;20044;-35
2023/05/29 03:03:51;;;;;;;12.80;3.70;;;8.30;99.90;;;;;;5039048;28;20037;-35
2023/05/29 03:06:17;;;;;;;11.98;3.50;;;8.30;99.90;;;;;;5036851;28;20054;-35
2023/05/29 03:08:46;;;;;;;15.73;3.55;;;8.20;99.90;;;;;;5052988;28;20075;-34
2023/05/29 03:11:13;;;;;;;11.63;3.20;;;8.20;99.90;;;;;;5058137;28;20115;-36
2023/05/29 03:13:39;;;;;;;13.32;2.90;;;8.20;99.90;;;;;;5057584;28;20036;-35
2023/05/29 03:16:05;;;;;;;12.60;3.38;;;8.20;99.90;;;;;;5056579;28;20044;-35
2023/05/29 03:18:31;;;;;;;14.95;3.63;;;8.20;99.90;;;;;;5050904;28;20056;-36
2023/05/29 03:20:57;;;;;;;10.43;3.33;;;8.10;99.90;;;;;;5056004;28;20187;-36
2023/05/29 03:23:22;;;;;;;11.27;3.03;;;8.10;99.90;;;;;;5051450;28;20135;-35
2023/05/29 03:25:48;;;;;;;15.95;3.38;;;8.10;99.90;;;;;;5056821;28;20183;-36
2023/05/29 03:28:14;;;;;;;14.38;3.40;;;8.00;99.90;;;;;;5057042;28;20040;-35
2023/05/29 03:30:40;;;;;;;13.07;3.50;;;8.00;99.90;;;;;;5054643;28;20035;-34
2023/05/29 03:33:06;;;;;;;14.05;4.05;;;8.10;99.90;;;;;;5058468;28;20032;-38
2023/05/29 03:35:32;;;;;;;10.20;2.80;;;8.00;99.90;;;;;;5061480;28;20119;-35
2023/05/29 03:37:58;;;;;;;10.70;3.40;;;8.00;99.90;;;;;;5060673;28;20033;-35
2023/05/29 03:40:24;;;;;;;11.93;3.47;;;8.00;99.90;;;;;;5061437;28;20486;-36
2023/05/29 03:42:50;;;;;;;11.20;2.72;;;8.00;99.90;;;;;;5062185;28;20464;-35
2023/05/29 03:45:16;;;;;;;13.82;4.32;;;7.90;99.90;;;;;;5062508;28;20124;-36
2023/05/29 03:47:42;;;;;;;15.15;3.75;;;7.90;99.90;;;;;;5060961;28;20124;-35
2023/05/29 03:50:08;;;;;;;13.63;3.67;;;7.90;99.90;;;;;;5058872;28;20032;-35
2023/05/29 03:52:34;;;;;;;10.98;3.50;;;8.00;99.90;;;;;;5061818;28;20031;-35
2023/05/29 03:54:59;;;;;;;13.52;2.92;;;7.90;99.90;;;;;;5063905;28;20035;-34
2023/05/29 03:57:26;;;;;;;15.20;3.28;;;7.90;99.90;;;;;;5062637;28;20037;-35
2023/05/29 03:59:52;;;;;;;11.55;3.60;;;7.90;99.90;;;;;;5062877;28;20117;-35
2023/05/29 04:02:18;;;;;;;16.52;3.75;;;8.00;99.90;;;;;;5059544;28;20151;-36
2023/05/29 04:04:44;;;;;;;10.77;2.95;;;8.00;99.90;;;;;;5063048;28;20467;-35
2023/05/29 04:07:10;;;;;;;13.07;3.60;;;8.00;99.90;;;;;;5067188;28;20045;-35
2023/05/29 04:09:36;;;;;;;10.38;3.13;;;8.00;99.90;;;;;;5057086;28;20076;-35
2023/05/29 04:12:05;;;;;;;14.93;3.75;;;8.10;99.90;;;;;;5070925;28;20060;-34
2023/05/29 04:14:31;;;;;;;14.20;3.60;;;8.10;99.90;;;;;;5060379;28;20068;-36
2023/05/29 04:16:57;;;;;;;12.02;3.47;;;8.20;99.90;;;;;;5068080;28;20842;-36
2023/05/29 04:19:22;;;;;;;15.95;3.45;;;8.20;99.90;;;;;;5063606;28;20111;-34
2023/05/29 04:21:48;;;;;;;12.48;3.08;;;8.20;99.90;;;;;;5059977;28;20041;-35
2023/05/29 04:24:15;;;;;;;11.85;2.97;;;8.30;99.90;;;;;;5057645;28;20086;-36
2023/05/29 04:26:41;;;;;;;14.48;3.30;;;8.30;99.90;;;;;;5061882;28;20485;-35
2023/05/29 04:29:12;;;;;;;13.98;3.72;;;8.30;99.90;;;;;;5058481;28;20196;-36
2023/05/29 04:31:38;;;;;;;12.85;3.72;;;8.30;99.90;;;;;;5066513;28;20064;-35
2023/05/29 04:34:04;;;;;;;15.63;3.53;;;8.40;99.90;;;;;;5068300;28;20394;-35
2023/05/29 04:36:32;;;;;;;13.23;3.50;;;8.50;99.90;;;;;;5057871;28;20045;-35
2023/05/29 04:38:58;;;;;;;12.85;3.45;;;8.50;99.90;;;;;;5060730;28;20047;-36
2023/05/29 04:41:29;;;;;;;11.80;3.22;;;8.50;99.90;;;;;;5057191;28;20037;-35
2023/05/29 04:43:58;;;;;;;14.93;3.78;;;8.60;99.90;;;;;;5066866;28;20064;-36
2023/05/29 04:46:24;;;;;;;9.82;3.70;;;8.60;99.90;;;;;;5063464;28;20037;-34
2023/05/29 04:48:53;;;;;;;12.73;4.20;;;8.70;99.90;;;;;;5065390;28;20035;-35
2023/05/29 04:51:20;;;;;;;12.23;3.78;;;8.70;99.90;;;;;;5059455;28;20033;-35
2023/05/29 04:53:48;;;;;;;17.98;3.55;;;8.80;99.90;;;;;;5064406;28;20040;-34
2023/05/29 04:56:15;;;;;;;9.43;3.17;;;8.80;99.90;;;;;;5064730;28;20051;-34
2023/05/29 04:58:41;;;;;;;10.73;2.85;;;8.80;99.90;;;;;;5058525;28;20068;-35
2023/05/29 05:01:14;;;;;;;15.02;3.25;;;8.90;99.90;;;;;;5063610;28;20033;-35
2023/05/29 05:03:43;;;;;;;10.27;3.63;;;9.00;99.90;;;;;;5062982;28;20032;-36
2023/05/29 05:06:09;;;;;;;13.25;4.38;;;9.00;99.90;;;;;;5066754;28;20029;-35
2023/05/29 05:08:36;;;;;;;13.40;3.25;;;9.10;99.90;;;;;;5061952;28;20371;-36
2023/05/29 05:11:02;;;;;;;12.88;3.33;;;9.20;99.90;;;;;;5069026;28;20080;-35
2023/05/29 05:13:27;;;;;;;11.63;3.30;;;9.30;99.90;;;;;;5064480;28;20473;-35
2023/05/29 05:15:54;;;;;;;10.98;3.35;;;9.30;99.90;;;;;;5059953;28;20082;-35
2023/05/29 05:18:20;;;;;;;10.82;2.75;;;9.40;99.90;;;;;;5064366;28;20091;-36
2023/05/29 05:20:46;;;;;;;13.30;3.00;;;9.50;99.90;;;;;;5066589;28;20105;-35
2023/05/29 05:23:11;;;;;;;10.15;3.05;;;9.60;99.90;;;;;;5059979;28;20036;-35
2023/05/29 05:25:38;;;;;;;11.20;3.33;;;9.70;99.90;;;;;;5063698;28;20045;-35
2023/05/29 05:28:07;;;;;;;10.55;3.70;;;9.80;99.90;;;;;;5066839;28;20462;-34
2023/05/29 05:30:33;;;;;;;13.38;2.85;;;9.90;99.90;;;;;;5065535;28;20468;-35
2023/05/29 05:33:00;;;;;;;11.52;3.20;;;10.00;99.90;;;;;;5063023;28;20132;-34
2023/05/29 05:35:26;;;;;;;9.60;2.85;;;10.10;99.90;;;;;;5053099;28;20032;-35
2023/05/29 05:37:51;;;;;;;9.73;2.90;;;10.20;99.90;;;;;;5066536;28;20533;-35
2023/05/29 05:40:18;;;;;;;11.80;3.20;;;10.30;99.90;;;;;;5070712;28;20040;-36
2023/05/29 05:42:43;;;;;;;11.52;3.38;;;10.40;99.90;;;;;;5058950;28;20041;-36
2023/05/29 05:45:10;;;;;;;10.70;3.10;;;10.50;99.90;;;;;;5063324;28;20040;-37
2023/05/29 05:47:35;;;;;;;11.82;2.83;;;10.60;99.90;;;;;;5055852;28;20526;-36
2023/05/29 05:50:01;;;;;;;12.60;3.30;;;10.70;99.90;;;;;;5065056;28;20064;-35
2023/05/29 05:52:30;;;;;;;11.60;3.05;;;10.80;99.90;;;;;;5045981;28;20037;-35
2023/05/29 05:54:56;;;;;;;11.32;3.00;;;10.90;99.90;;;;;;5057010;28;20105;-36
2023/05/29 05:57:22;;;;;;;10.35;3.17;;;10.90;99.90;;;;;;5066312;28;20036;-36
2023/05/29 05:59:48;;;;;;;16.92;3.70;;;11.00;99.90;;;;;;5057782;28;20071;-37
2023/05/29 06:02:13;;;;;;;10.60;2.85;;;11.20;99.90;;;;;;5065610;28;20093;-34
2023/05/29 06:04:43;;;;;;;13.15;3.53;;;11.30;99.90;;;;;;5069039;28;20119;-36
2023/05/29 06:07:09;;;;;;;11.73;3.45;;;11.40;99.90;;;;;;5061840;28;20429;-35
2023/05/29 06:09:34;;;;;;;14.55;3.22;;;11.50;99.90;;;;;;5063179;28;20036;-36
2023/05/29 06:12:00;;;;;;;8.98;3.30;;;11.60;99.90;;;;;;5063877;28;20033;-35
2023/05/29 06:14:26;;;;;;;12.40;3.50;;;11.70;99.90;;;;;;5062073;28;20107;-35
2023/05/29 06:16:52;;;;;;;13.52;3.25;;;11.80;99.90;;;;;;5065493;28;20044;-35
2023/05/29 06:19:18;;;;;;;9.90;3.30;;;11.90;99.90;;;;;;5042580;28;20049;-36
2023/05/29 06:21:43;;;;;;;7.40;2.83;;;12.00;99.90;;;;;;5063717;28;20132;-35
2023/05/29 06:24:09;;;;;;;9.18;3.10;;;12.10;99.90;;;;;;5060195;28;20039;-35
2023/05/29 06:26:37;;;;;;;11.25;3.45;;;12.10;99.90;;;;;;5068917;28;20045;-35
2023/05/29 06:29:03;;;;;;;10.52;2.90;;;12.20;99.90;;;;;;5063316;28;20044;-35
2023/05/29 06:31:28;;;;;;;15.88;3.50;;;12.30;99.90;;;;;;5070290;28;20033;-36
2023/05/29 06:33:54;;;;;;;13.30;3.17;;;12.40;99.90;;;;;;5061610;28;20543;-35
2023/05/29 06:36:21;;;;;;;14.57;2.60;;;12.50;99.90;;;;;;5067314;28;20044;-35
2023/05/29 06:38:50;;;;;;;10.80;3.00;;;12.60;99.90;;;;;;5061585;28;20033;-37
2023/05/29 06:41:16;;;;;;;14.73;2.95;;;12.80;99.90;;;;;;5053926;28;20116;-35
2023/05/29 06:43:42;;;;;;;7.93;3.13;;;12.80;99.90;;;;;;5060543;28;20040;-35
2023/05/29 06:46:08;;;;;;;14.18;3.38;;;12.90;99.90;;;;;;5056396;28;20025;-35
2023/05/29 06:48:35;;;;;;;11.40;2.60;;;12.90;99.90;;;;;;5058030;28;20040;-36
2023/05/29 06:51:01;;;;;;;10.93;3.55;;;13.10;99.90;;;;;;5066824;28;20127;-35
2023/05/29 06:53:27;;;;;;;5.90;2.75;;;13.10;99.90;;;;;;5058140;28;20068;-34
2023/05/29 06:55:53;;;;;;;11.32;3.40;;;13.20;99.90;;;;;;5060713;28;20151;-35
2023/05/29 06:58:19;;;;;;;14.20;3.28;;;13.30;99.90;;;;;;5064522;28;20040;-35
2023/05/29 07:00:45;;;;;;;12.32;3.65;;;13.30;99.90;;;;;;5055013;28;20059;-36
2023/05/29 07:03:10;;;;;;;9.60;3.00;;;13.50;99.90;;;;;;5068108;28;20111;-36
2023/05/29 07:05:36;;;;;;;13.40;3.75;;;13.60;99.90;;;;;;5061125;28;20402;-35
2023/05/29 07:08:02;;;;;;;8.40;2.65;;;13.60;99.90;;;;;;5057380;28;20072;-37
2023/05/29 07:10:27;;;;;;;7.80;2.95;;;13.70;99.90;;;;;;5064676;28;20032;-36
2023/05/29 07:12:53;;;;;;;11.93;3.00;;;13.70;99.90;;;;;;5063625;28;20390;-35
2023/05/29 07:15:19;;;;;;;10.52;3.08;;;13.80;99.90;;;;;;5058785;28;20120;-36
2023/05/29 07:17:45;;;;;;;10.45;2.78;;;13.90;99.90;;;;;;5053539;28;20512;-35
2023/05/29 07:20:11;;;;;;;10.48;3.35;;;14.10;99.90;;;;;;5060923;28;20028;-37
2023/05/29 07:22:36;;;;;;;9.05;3.03;;;14.30;99.90;;;;;;5061495;28;20110;-35
2023/05/29 07:25:03;;;;;;;11.85;3.20;;;14.40;99.90;;;;;;5064532;28;20037;-35
2023/05/29 07:27:29;;;;;;;12.32;3.10;;;14.50;99.90;;;;;;5063939;28;20478;-35
2023/05/29 07:29:55;;;;;;;11.70;3.47;;;14.50;99.90;;;;;;5059499;28;20029;-36
2023/05/29 07:32:21;;;;;;;13.93;3.63;;;14.70;99.90;;;;;;5054950;28;20090;-35
2023/05/29 07:34:49;;;;;;;15.80;3.42;;;14.80;99.90;;;;;;5062109;28;20036;-35
2023/05/29 07:37:15;;;;;;;12.30;2.88;;;14.80;99.90;;;;;;5061715;28;20426;-37
2023/05/29 07:39:42;;;;;;;12.15;3.30;;;14.90;99.90;;;;;;5064796;28;20036;-35
2023/05/29 07:42:08;;;;;;;12.75;3.67;;;14.90;99.90;;;;;;5058111;28;20041;-36
2023/05/29 07:44:34;;;;;;;12.85;3.40;;;14.90;99.90;;;;;;5058235;28;20087;-36
2023/05/29 07:47:00;;;;;;;14.20;4.18;;;15.00;99.90;;;;;;5062555;28;20041;-36
2023/05/29 07:49:27;;;;;;;11.60;3.35;;;15.10;99.90;;;;;;5059080;28;20087;-36
2023/05/29 07:51:53;;;;;;;10.63;3.42;;;15.10;99.90;;;;;;5060297;28;20418;-35
2023/05/29 07:54:20;;;;;;;16.55;4.18;;;15.20;99.90;;;;;;5045976;28;20071;-35
2023/05/29 07:56:46;;;;;;;16.15;3.85;;;15.40;99.90;;;;;;5064208;28;20119;-36
2023/05/29 07:59:12;;;;;;;13.82;3.60;;;15.60;99.90;;;;;;5060456;28;20037;-36
2023/05/29 08:01:39;;;;;;;14.68;3.55;;;15.80;99.90;;;;;;5056652;28;20379;-36
2023/05/29 08:04:05;;;;;;;14.60;3.70;;;15.90;99.90;;;;;;5063488;28;20037;-35
2023/05/29 08:06:33;;;;;;;11.25;4.05;;;16.10;99.90;;;;;;5057407;28;20043;-36
2023/05/29 08:08:59;;;;;;;10.93;3.65;;;16.20;99.90;;;;;;5049953;28;20123;-36
2023/05/29 08:11:25;;;;;;;10.38;3.38;;;16.20;99.90;;;;;;5040439;28;20108;-35
2023/05/29 08:13:51;;;;;;;13.52;3.50;;;16.20;99.90;;;;;;5051844;28;20045;-36
2023/05/29 08:16:17;;;;;;;12.10;4.22;;;16.20;99.90;;;;;;5050829;28;20041;-37
2023/05/29 08:18:43;;;;;;;9.73;3.25;;;16.30;99.90;;;;;;5063381;28;20028;-36
2023/05/29 08:21:09;;;;;;;12.38;4.03;;;16.40;99.90;;;;;;5062346;28;20028;-36
2023/05/29 08:23:35;;;;;;;10.75;3.38;;;16.60;99.90;;;;;;5060861;28;20055;-35
2023/05/29 08:26:02;;;;;;;14.15;3.45;;;16.70;99.90;;;;;;5052705;28;20046;-37
2023/05/29 08:28:28;;;;;;;12.02;3.40;;;16.90;99.90;;;;;;5059075;28;20049;-36
2023/05/29 08:30:54;;;;;;;9.48;3.63;;;17.00;99.90;;;;;;5056002;28;20044;-36
2023/05/29 08:33:20;;;;;;;8.98;3.72;;;17.30;99.90;;;;;;5056398;28;20471;-35
2023/05/29 08:35:46;;;;;;;10.02;3.67;;;17.40;99.90;;;;;;5066617;28;20440;-35
2023/05/29 08:38:11;;;;;;;10.57;3.50;;;17.50;99.90;;;;;;5061206;28;20037;-35
2023/05/29 08:40:37;;;;;;;10.23;3.47;;;17.50;99.90;;;;;;5054045;28;20122;-36
2023/05/29 08:43:08;;;;;;;10.73;3.42;;;17.70;99.90;;;;;;5060750;28;20033;-37
2023/05/29 08:45:37;;;;;;;9.77;3.33;;;18.00;99.90;;;;;;5062217;28;20494;-36
2023/05/29 08:48:04;;;;;;;10.32;3.20;;;18.10;99.00;;;;;;5062863;28;20106;-36
2023/05/29 08:50:30;;;;;;;11.63;3.33;;;18.30;96.20;;;;;;5059136;28;20037;-36
2023/05/29 08:52:57;;;;;;;13.05;3.83;;;18.40;95.80;;;;;;5065975;28;20039;-37
2023/05/29 08:55:23;;;;;;;11.90;3.35;;;18.60;95.00;;;;;;5059337;28;20037;-36
2023/05/29 08:57:49;;;;;;;16.40;4.35;;;18.70;93.30;;;;;;5058961;28;20087;-36
2023/05/29 09:00:16;;;;;;;9.43;3.97;;;18.70;91.20;;;;;;5059239;28;20040;-37
2023/05/29 09:02:45;;;;;;;11.68;3.78;;;18.80;90.50;;;;;;5056387;28;20490;-36
2023/05/29 09:05:12;;;;;;;11.43;3.47;;;18.60;89.10;;;;;;5052258;28;20095;-35
2023/05/29 09:07:39;;;;;;;10.30;3.05;;;18.80;90.20;;;;;;5060812;28;20101;-36
2023/05/29 09:10:11;;;;;;;13.32;3.25;;;19.10;85.30;;;;;;5060677;28;20048;-37
2023/05/29 09:12:37;;;;;;;9.93;3.20;;;19.10;82.00;;;;;;5054881;28;20037;-36
2023/05/29 09:15:16;;;;;;;11.88;3.83;;;19.30;84.40;;;;;;5067042;28;20033;-38
2023/05/29 09:17:42;;;;;;;13.48;3.60;;;19.40;80.60;;;;;;5061764;28;20046;-36
2023/05/29 09:20:17;;;;;;;10.13;3.08;;;19.50;80.50;;;;;;5066943;28;20044;-36
2023/05/29 09:22:53;;;;;;;10.93;3.60;;;19.40;76.20;;;;;;5063124;28;20037;-36
2023/05/29 09:25:22;;;;;;;8.95;3.42;;;19.50;77.20;;;;;;5060936;28;20650;-36
2023/05/29 09:27:53;;;;;;;13.43;3.83;;;19.40;78.80;;;;;;5064765;28;20048;-37
2023/05/29 09:30:38;;;;;;;9.88;3.53;;;19.60;79.60;;;;;;5066480;28;20497;-38
2023/05/29 09:33:05;;;;;;;10.10;3.22;;;19.80;69.40;;;;;;5060648;28;20059;-35
2023/05/29 09:35:41;;;;;;;8.32;2.67;;;19.80;72.80;;;;;;5059859;28;20036;-36
2023/05/29 09:38:09;;;;;;;9.90;3.55;;;19.70;68.40;;;;;;5060120;28;20055;-36
2023/05/29 09:40:40;;;;;;;9.02;2.72;;;19.70;70.50;;;;;;5053036;28;20106;-35
2023/05/29 09:43:17;;;;;;;11.60;3.22;;;19.70;66.40;;;;;;5056174;28;20064;-37
2023/05/29 09:45:44;;;;;;;9.07;3.20;;;19.70;68.40;;;;;;5055809;28;20039;-36
2023/05/29 09:48:22;;;;;;;12.05;3.45;;;19.80;68.20;;;;;;5068564;28;20035;-36
2023/05/29 09:50:48;;;;;;;10.48;3.83;;;19.70;67.10;;;;;;5059046;28;20040;-37
2023/05/29 09:53:25;;;;;;;13.85;4.05;;;19.80;69.70;;;;;;5065458;28;20090;-36
2023/05/29 09:55:52;;;;;;;10.98;3.25;;;20.10;67.60;;;;;;5056999;28;20393;-37
2023/05/29 09:58:18;;;;;;;11.98;3.47;;;20.40;69.10;;;;;;5058613;28;20037;-36
2023/05/29 10:00:45;;;;;;;8.63;3.42;;;20.50;67.70;;;;;;5059675;28;20512;-37
2023/05/29 10:03:14;;;;;;;12.30;3.83;;;20.40;65.70;;;;;;5065185;28;20028;-36
2023/05/29 10:05:41;;;;;;;8.57;3.85;;;20.50;65.20;;;;;;5058489;28;20029;-36
2023/05/29 10:08:18;;;;;;;13.60;3.63;;;20.70;65.00;;;;;;5054386;28;20052;-37
2023/05/29 10:11:09;;;;;;;9.95;3.35;;;20.60;62.50;;;;;;5057164;28;20178;-39
2023/05/29 10:13:38;;;;;;;8.82;3.20;;;20.70;62.70;;;;;;5057480;28;20033;-36
2023/05/29 10:16:07;;;;;;;9.52;3.50;;;20.80;62.40;;;;;;5059177;28;20067;-37
2023/05/29 10:18:43;;;;;;;7.07;3.05;;;21.10;62.30;;;;;;5056176;28;20397;-37
2023/05/29 10:21:12;;;;;;;10.07;3.38;;;21.20;61.30;;;;;;5067065;28;20033;-37
2023/05/29 10:23:39;;;;;;;10.68;2.92;;;21.30;59.50;;;;;;5059213;28;20041;-36
2023/05/29 10:26:30;;;;;;;11.25;3.47;;;21.50;60.00;;;;;;5053064;28;20107;-37
2023/05/29 10:29:24;;;;;;;8.73;3.45;;;21.50;58.50;;;;;;5057444;28;20040;-36
2023/05/29 10:32:12;;;;;;;11.27;3.85;;;21.50;58.20;;;;;;5069704;28;20044;-40
2023/05/29 10:35:06;;;;;;;10.10;3.00;;;21.40;56.60;;;;;;5054993;28;20045;-37
2023/05/29 10:38:02;;;;;;;8.48;2.70;;;21.60;57.40;;;;;;5069588;28;20036;-37
2023/05/29 10:40:28;;;;;;;7.88;3.40;;;21.70;57.00;;;;;;5045923;28;20052;-36
2023/05/29 10:42:58;;;;;;;12.48;3.22;;;22.00;57.70;;;;;;5053539;28;20033;-37
2023/05/29 10:45:30;;;;;;;10.82;4.43;;;22.00;57.10;;;;;;5066974;28;20124;-38
2023/05/29 10:48:16;;;;;;;11.52;3.92;;;22.00;56.90;;;;;;5058923;28;20033;-36
2023/05/29 10:50:46;;;;;;;10.27;3.67;;;22.00;55.90;;;;;;5054504;28;20195;-36
2023/05/29 10:53:22;;;;;;;9.35;3.50;;;21.90;55.80;;;;;;5047293;28;20432;-37
2023/05/29 10:55:48;;;;;;;9.40;3.50;;;21.80;55.40;;;;;;5066970;28;20052;-36
2023/05/29 10:58:19;;;;;;;11.23;3.80;;;21.90;55.90;;;;;;5057325;28;20033;-37
2023/05/29 11:00:46;;;;;;;9.02;2.90;;;21.90;54.90;;;;;;5058170;28;20036;-40
2023/05/29 11:03:20;;;;;;;9.15;3.30;;;21.90;55.30;;;;;;5061779;28;20068;-37
2023/05/29 11:06:10;;;;;;;8.73;3.38;;;21.80;54.10;;;;;;5060186;28;20083;-38
2023/05/29 11:09:06;;;;;;;7.68;2.90;;;21.70;54.70;;;;;;5064228;28;20032;-36
2023/05/29 11:11:38;;;;;;;9.07;3.35;;;21.60;54.00;;;;;;5055813;28;20552;-37
2023/05/29 11:14:05;;;;;;;11.65;3.83;;;21.70;55.00;;;;;;5063337;28;20511;-37
2023/05/29 11:16:32;;;;;;;8.98;2.88;;;22.00;54.30;;;;;;5051823;28;20086;-36
2023/05/29 11:19:03;;;;;;;10.50;3.58;;;22.10;54.20;;;;;;5058262;28;20032;-36
2023/05/29 11:21:52;;;;;;;11.48;3.28;;;22.20;53.80;;;;;;5061057;28;20112;-36
2023/05/29 11:24:18;;;;;;;7.85;3.08;;;22.50;52.70;;;;;;5061424;28;20167;-37
2023/05/29 11:26:45;;;;;;;8.93;2.88;;;22.70;53.30;;;;;;5058791;28;20119;-36
2023/05/29 11:29:13;;;;;;;8.90;3.20;;;23.00;52.30;;;;;;5056553;28;20041;-37
2023/05/29 11:31:40;;;;;;;7.90;3.33;;;22.90;51.20;;;;;;5049790;28;20115;-36
2023/05/29 11:34:10;;;;;;;8.57;3.42;;;22.50;50.30;;;;;;5066083;28;20121;-37
2023/05/29 11:36:37;;;;;;;9.82;3.50;;;22.50;51.20;;;;;;5056383;28;20036;-37
2023/05/29 11:39:05;;;;;;;9.15;2.90;;;22.60;51.10;;;;;;5055599;28;20068;-37
2023/05/29 11:41:31;;;;;;;9.35;2.90;;;22.40;50.90;;;;;;5061571;28;20032;-35
2023/05/29 11:44:05;;;;;;;9.63;3.15;;;22.50;51.70;;;;;;5053178;28;20029;-36
2023/05/29 11:46:32;;;;;;;9.73;3.15;;;22.60;51.90;;;;;;5051429;28;20087;-35
2023/05/29 11:48:58;;;;;;;8.68;2.88;;;22.80;51.30;;;;;;5056646;28;20049;-37
2023/05/29 11:51:25;;;;;;;9.70;3.50;;;22.70;50.70;;;;;;5055542;28;20040;-37
2023/05/29 11:53:53;;;;;;;10.93;3.08;;;22.70;49.80;;;;;;5056253;28;20421;-37
2023/05/29 11:56:19;;;;;;;8.63;2.90;;;22.80;50.00;;;;;;5059940;28;20048;-37
2023/05/29 11:58:45;;;;;;;12.52;3.50;;;22.80;49.40;;;;;;5067231;28;20392;-36
2023/05/29 12:01:11;;;;;;;8.30;2.92;;;22.90;49.00;;;;;;5063724;28;20379;-37
2023/05/29 12:03:41;;;;;;;8.25;3.15;;;22.80;50.00;;;;;;5059206;28;20070;-37
2023/05/29 12:06:10;;;;;;;11.00;3.72;;;23.20;50.10;;;;;;5058983;28;20041;-36
2023/05/29 12:08:36;;;;;;;10.45;3.28;;;23.80;50.10;;;;;;5067287;28;20063;-38
2023/05/29 12:11:02;;;;;;;10.35;3.42;;;24.20;48.60;;;;;;5073091;28;20038;-36
2023/05/29 12:13:28;;;;;;;9.48;3.40;;;24.10;48.10;;;;;;5060442;28;20111;-36
2023/05/29 12:16:00;;;;;;;10.05;3.35;;;23.90;47.70;;;;;;5056494;28;20510;-37
2023/05/29 12:18:27;;;;;;;6.93;2.93;;;23.90;46.80;;;;;;5066289;28;20529;-37
2023/05/29 12:21:04;;;;;;;9.07;3.30;;;23.80;47.70;;;;;;5071045;28;20036;-36
2023/05/29 12:23:30;;;;;;;8.90;3.35;;;23.80;47.40;;;;;;5065012;28;20119;-36
2023/05/29 12:25:56;;;;;;;11.73;3.00;;;23.80;47.90;;;;;;5057980;28;20486;-36
2023/05/29 12:28:22;;;;;;;12.25;3.25;;;23.90;48.10;;;;;;5064869;28;20110;-38
2023/05/29 12:30:49;;;;;;;9.77;3.10;;;23.80;46.90;;;;;;5067616;28;20040;-36
2023/05/29 12:33:44;;;;;;;7.80;2.90;;;23.80;46.60;;;;;;5063778;28;20445;-36
2023/05/29 12:36:12;;;;;;;8.88;3.47;;;24.00;47.60;;;;;;5045312;28;20417;-37
2023/05/29 12:38:49;;;;;;;7.07;2.72;;;24.10;46.40;;;;;;5063004;28;20041;-36
2023/05/29 12:41:28;;;;;;;8.55;2.88;;;24.50;46.20;;;;;;5063045;28;20033;-36
2023/05/29 12:43:56;;;;;;;6.30;2.90;;;24.70;45.90;;;;;;5062670;28;20074;-40
2023/05/29 12:46:26;;;;;;;6.88;2.58;;;24.60;45.40;;;;;;5062515;28;20395;-36
2023/05/29 12:48:56;;;;;;;7.30;3.10;;;24.70;45.80;;;;;;5068841;28;20043;-36